Franklin, West Virginia
Current Conditions -  °F | °C
As of 12:35 PM on Thursday 30 Oct 2014 (Local Time) from KW99 Reporting Station
Overcast Overcast  
Wind Chill: 11°   Ceiling: 4800
Heat Index: 11°   Visibility: 10mi
Dew Point:   Wind: 0mph
Humidity: 51%   Direction: NA
Pressure: 30.11"   Gusts: NA
Location:  38.64°N, 79.33°W
Report Text: KW99 301635Z AUTO 00000KT 10SM OVC048 11/01 A3011 RMK AO2 T01050007
Loading
Personal Weather Stations






























Interactive Weather Map
Tropical Storm Tracking
New forecast layout! Learn more

10-Day Weather Forecast

Advertisements
Track Severe Weather on mobile